sensor_id;sensor_type;location;lat;lon;timestamp;pressure;altitude;pressure_sealevel;temperature;humidity
17764;BME280;22245;52.832;13.816;2023-02-12T00:02:21;103131.78;;;7.64;88.78
17764;BME280;22245;52.832;13.816;2023-02-12T00:05:44;103140.66;;;7.63;88.97
17764;BME280;22245;52.832;13.816;2023-02-12T00:09:06;103140.59;;;7.65;88.55
17764;BME280;22245;52.832;13.816;2023-02-12T00:12:27;103146.78;;;7.65;88.46
17764;BME280;22245;52.832;13.816;2023-02-12T00:15:49;103146.72;;;7.67;88.33
17764;BME280;22245;52.832;13.816;2023-02-12T00:19:11;103149.44;;;7.65;88.27
17764;BME280;22245;52.832;13.816;2023-02-12T00:22:34;103156.47;;;7.66;88.01
17764;BME280;22245;52.832;13.816;2023-02-12T00:25:55;103153.00;;;7.64;88.11
17764;BME280;22245;52.832;13.816;2023-02-12T00:29:17;103160.91;;;7.66;88.43
17764;BME280;22245;52.832;13.816;2023-02-12T00:32:38;103160.97;;;7.64;88.29
17764;BME280;22245;52.832;13.816;2023-02-12T00:36:01;103162.00;;;7.60;88.09
17764;BME280;22245;52.832;13.816;2023-02-12T00:39:24;103157.66;;;7.58;88.59
17764;BME280;22245;52.832;13.816;2023-02-12T00:42:46;103170.88;;;7.59;88.18
17764;BME280;22245;52.832;13.816;2023-02-12T00:46:09;103167.34;;;7.59;88.53
17764;BME280;22245;52.832;13.816;2023-02-12T00:49:31;103175.25;;;7.60;88.08
17764;BME280;22245;52.832;13.816;2023-02-12T00:52:53;103173.53;;;7.59;87.81
17764;BME280;22245;52.832;13.816;2023-02-12T00:56:16;103176.16;;;7.59;88.20
17764;BME280;22245;52.832;13.816;2023-02-12T00:59:41;103177.94;;;7.59;87.67
17764;BME280;22245;52.832;13.816;2023-02-12T01:03:03;103180.59;;;7.59;87.69
17764;BME280;22245;52.832;13.816;2023-02-12T01:06:25;103171.78;;;7.58;87.89
17764;BME280;22245;52.832;13.816;2023-02-12T01:09:47;103176.25;;;7.56;87.39
17764;BME280;22245;52.832;13.816;2023-02-12T01:13:10;103183.28;;;7.57;87.91
17764;BME280;22245;52.832;13.816;2023-02-12T01:16:32;103192.16;;;7.56;87.49
17764;BME280;22245;52.832;13.816;2023-02-12T01:19:56;103192.22;;;7.55;87.73
17764;BME280;22245;52.832;13.816;2023-02-12T01:23:19;103202.84;;;7.55;87.33
17764;BME280;22245;52.832;13.816;2023-02-12T01:26:41;103212.56;;;7.54;87.52
17764;BME280;22245;52.832;13.816;2023-02-12T01:30:07;103206.44;;;7.52;86.99
17764;BME280;22245;52.832;13.816;2023-02-12T01:33:29;103211.75;;;7.52;87.59
17764;BME280;22245;52.832;13.816;2023-02-12T01:36:50;103207.34;;;7.51;87.20
17764;BME280;22245;52.832;13.816;2023-02-12T01:40:14;103211.81;;;7.50;87.56
17764;BME280;22245;52.832;13.816;2023-02-12T01:43:38;103208.28;;;7.50;87.11
17764;BME280;22245;52.832;13.816;2023-02-12T01:47:03;103213.66;;;7.48;87.34
17764;BME280;22245;52.832;13.816;2023-02-12T01:50:25;103223.38;;;7.48;87.25
17764;BME280;22245;52.832;13.816;2023-02-12T01:53:49;103224.28;;;7.47;87.21
17764;BME280;22245;52.832;13.816;2023-02-12T01:57:13;103222.56;;;7.46;87.15
17764;BME280;22245;52.832;13.816;2023-02-12T02:00:35;103237.59;;;7.45;87.30
17764;BME280;22245;52.832;13.816;2023-02-12T02:04:00;103235.88;;;7.44;86.71
17764;BME280;22245;52.832;13.816;2023-02-12T02:07:22;103240.38;;;7.42;87.04
17764;BME280;22245;52.832;13.816;2023-02-12T02:10:44;103241.28;;;7.41;87.21
17764;BME280;22245;52.832;13.816;2023-02-12T02:14:06;103232.44;;;7.41;86.86
17764;BME280;22245;52.832;13.816;2023-02-12T02:17:50;103237.75;;;7.41;86.66
17764;BME280;22245;52.832;13.816;2023-02-12T02:21:36;103237.81;;;7.39;86.83
17764;BME280;22245;52.832;13.816;2023-02-12T02:25:27;103237.94;;;7.34;87.12
17764;BME280;22245;52.832;13.816;2023-02-12T02:29:06;103235.28;;;7.34;87.01
17764;BME280;22245;52.832;13.816;2023-02-12T02:32:37;103232.75;;;7.31;87.25
17764;BME280;22245;52.832;13.816;2023-02-12T02:36:11;103225.75;;;7.29;87.16
17764;BME280;22245;52.832;13.816;2023-02-12T02:39:37;103232.78;;;7.30;86.84
17764;BME280;22245;52.832;13.816;2023-02-12T02:43:05;103233.69;;;7.29;87.23
17764;BME280;22245;52.832;13.816;2023-02-12T02:46:31;103235.50;;;7.28;86.94
17764;BME280;22245;52.832;13.816;2023-02-12T02:50:00;103235.50;;;7.28;87.01
17764;BME280;22245;52.832;13.816;2023-02-12T02:53:26;103235.50;;;7.28;86.67
17764;BME280;22245;52.832;13.816;2023-02-12T02:56:52;103241.63;;;7.29;87.02
17764;BME280;22245;52.832;13.816;2023-02-12T03:00:17;103245.19;;;7.29;86.74
17764;BME280;22245;52.832;13.816;2023-02-12T03:03:45;103249.56;;;7.30;86.32
17764;BME280;22245;52.832;13.816;2023-02-12T03:07:15;103251.41;;;7.28;86.63
17764;BME280;22245;52.832;13.816;2023-02-12T03:10:40;103262.84;;;7.29;86.77
17764;BME280;22245;52.832;13.816;2023-02-12T03:14:07;103259.34;;;7.28;86.28
17764;BME280;22245;52.832;13.816;2023-02-12T03:17:33;103261.13;;;7.28;86.07
17764;BME280;22245;52.832;13.816;2023-02-12T03:20:59;103262.03;;;7.27;86.05
17764;BME280;22245;52.832;13.816;2023-02-12T03:24:27;103261.28;;;7.23;86.20
17764;BME280;22245;52.832;13.816;2023-02-12T03:27:57;103272.03;;;7.17;86.51
17764;BME280;22245;52.832;13.816;2023-02-12T03:31:28;103282.69;;;7.15;85.64
17764;BME280;22245;52.832;13.816;2023-02-12T03:35:01;103281.00;;;7.13;86.37
17764;BME280;22245;52.832;13.816;2023-02-12T03:38:33;103278.34;;;7.13;86.13
17764;BME280;22245;52.832;13.816;2023-02-12T03:42:01;103289.75;;;7.15;85.92
17764;BME280;22245;52.832;13.816;2023-02-12T03:45:33;103286.19;;;7.16;85.70
17764;BME280;22245;52.832;13.816;2023-02-12T03:49:02;103289.72;;;7.16;85.88
17764;BME280;22245;52.832;13.816;2023-02-12T03:52:27;103290.66;;;7.15;85.61
17764;BME280;22245;52.832;13.816;2023-02-12T03:55:55;103293.31;;;7.15;85.17
17764;BME280;22245;52.832;13.816;2023-02-12T03:59:19;103296.91;;;7.13;85.75
17764;BME280;22245;52.832;13.816;2023-02-12T04:02:42;103304.84;;;7.13;85.27
17764;BME280;22245;52.832;13.816;2023-02-12T04:06:04;103301.47;;;7.07;85.40
17764;BME280;22245;52.832;13.816;2023-02-12T04:09:27;103301.47;;;7.07;85.70
17764;BME280;22245;52.832;13.816;2023-02-12T04:12:52;103300.56;;;7.08;85.32
17764;BME280;22245;52.832;13.816;2023-02-12T04:16:22;103298.81;;;7.07;85.29
17764;BME280;22245;52.832;13.816;2023-02-12T04:19:56;103310.25;;;7.09;85.18
17764;BME280;22245;52.832;13.816;2023-02-12T04:23:46;103306.75;;;7.09;84.75
17764;BME280;22245;52.832;13.816;2023-02-12T04:27:10;103300.63;;;7.07;84.60
17764;BME280;22245;52.832;13.816;2023-02-12T04:30:37;103311.25;;;7.05;84.82
17764;BME280;22245;52.832;13.816;2023-02-12T04:34:08;103312.25;;;7.01;84.76
17764;BME280;22245;52.832;13.816;2023-02-12T04:37:35;103315.78;;;7.02;85.11
17764;BME280;22245;52.832;13.816;2023-02-12T04:40:58;103322.84;;;7.01;85.09
17764;BME280;22245;52.832;13.816;2023-02-12T04:44:22;103314.06;;;6.99;84.80
17764;BME280;22245;52.832;13.816;2023-02-12T04:47:45;103327.31;;;6.99;84.70
17764;BME280;22245;52.832;13.816;2023-02-12T04:51:08;103328.25;;;6.98;84.68
17764;BME280;22245;52.832;13.816;2023-02-12T04:54:30;103323.78;;;6.99;84.93
17764;BME280;22245;52.832;13.816;2023-02-12T04:57:51;103334.38;;;6.99;84.99
17764;BME280;22245;52.832;13.816;2023-02-12T05:01:13;103338.84;;;6.98;85.08
17764;BME280;22245;52.832;13.816;2023-02-12T05:04:35;103344.22;;;6.95;84.80
17764;BME280;22245;52.832;13.816;2023-02-12T05:07:58;103337.13;;;6.95;85.14
17764;BME280;22245;52.832;13.816;2023-02-12T05:11:20;103344.22;;;6.95;85.15
17764;BME280;22245;52.832;13.816;2023-02-12T05:14:42;103344.25;;;6.93;85.10
17764;BME280;22245;52.832;13.816;2023-02-12T05:18:04;103342.50;;;6.94;84.96
17764;BME280;22245;52.832;13.816;2023-02-12T05:21:25;103351.28;;;6.94;84.79
17764;BME280;22245;52.832;13.816;2023-02-12T05:24:48;103346.88;;;6.95;85.02
17764;BME280;22245;52.832;13.816;2023-02-12T05:28:10;103354.75;;;6.97;84.43
17764;BME280;22245;52.832;13.816;2023-02-12T05:31:32;103344.22;;;6.95;84.87
17764;BME280;22245;52.832;13.816;2023-02-12T05:34:54;103344.22;;;6.95;85.01
17764;BME280;22245;52.832;13.816;2023-02-12T05:38:16;103342.50;;;6.94;84.55
17764;BME280;22245;52.832;13.816;2023-02-12T05:41:39;103336.31;;;6.93;85.00
17764;BME280;22245;52.832;13.816;2023-02-12T05:45:01;103350.44;;;6.94;84.56
17764;BME280;22245;52.832;13.816;2023-02-12T05:48:22;103358.41;;;6.92;84.97
17764;BME280;22245;52.832;13.816;2023-02-12T05:51:44;103348.72;;;6.91;85.02
17764;BME280;22245;52.832;13.816;2023-02-12T05:55:07;103354.94;;;6.90;84.72
17764;BME280;22245;52.832;13.816;2023-02-12T05:58:30;103364.69;;;6.90;84.35
17764;BME280;22245;52.832;13.816;2023-02-12T06:01:52;103360.22;;;6.90;84.47
17764;BME280;22245;52.832;13.816;2023-02-12T06:05:13;103369.00;;;6.92;84.16
17764;BME280;22245;52.832;13.816;2023-02-12T06:08:35;103375.38;;;6.87;84.26
17764;BME280;22245;52.832;13.816;2023-02-12T06:11:57;103375.28;;;6.90;84.40
17764;BME280;22245;52.832;13.816;2023-02-12T06:15:20;103384.13;;;6.89;84.24
17764;BME280;22245;52.832;13.816;2023-02-12T06:18:41;103377.03;;;6.89;84.25
17764;BME280;22245;52.832;13.816;2023-02-12T06:22:03;103386.72;;;6.90;83.97
17764;BME280;22245;52.832;13.816;2023-02-12T06:25:24;103390.19;;;6.94;84.18
17764;BME280;22245;52.832;13.816;2023-02-12T06:28:46;103386.63;;;6.95;83.63
17764;BME280;22245;52.832;13.816;2023-02-12T06:32:09;103387.47;;;6.95;83.46
17764;BME280;22245;52.832;13.816;2023-02-12T06:35:34;103396.25;;;6.98;83.66
17764;BME280;22245;52.832;13.816;2023-02-12T06:38:55;103387.38;;;6.99;83.59
17764;BME280;22245;52.832;13.816;2023-02-12T06:42:17;103397.97;;;6.99;83.38
17764;BME280;22245;52.832;13.816;2023-02-12T06:45:39;103406.00;;;6.97;83.62
17764;BME280;22245;52.832;13.816;2023-02-12T06:49:01;103413.97;;;6.95;83.39
17764;BME280;22245;52.832;13.816;2023-02-12T06:52:23;103421.00;;;6.97;83.33
17764;BME280;22245;52.832;13.816;2023-02-12T06:55:45;103417.50;;;6.96;83.52
17764;BME280;22245;52.832;13.816;2023-02-12T06:59:11;103428.91;;;6.98;83.71
17764;BME280;22245;52.832;13.816;2023-02-12T07:02:33;103430.66;;;6.99;83.16
17764;BME280;22245;52.832;13.816;2023-02-12T07:06:02;103435.06;;;6.99;83.33
17764;BME280;22245;52.832;13.816;2023-02-12T07:09:24;103436.81;;;7.00;83.46
17764;BME280;22245;52.832;13.816;2023-02-12T07:12:46;103428.88;;;7.00;83.24
17764;BME280;22245;52.832;13.816;2023-02-12T07:16:10;103435.91;;;7.01;83.36
17764;BME280;22245;52.832;13.816;2023-02-12T07:19:32;103440.31;;;7.02;83.17
17764;BME280;22245;52.832;13.816;2023-02-12T07:22:55;103435.91;;;7.01;83.13
17764;BME280;22245;52.832;13.816;2023-02-12T07:26:18;103436.75;;;7.03;83.25
17764;BME280;22245;52.832;13.816;2023-02-12T07:29:40;103434.13;;;7.01;83.58
17764;BME280;22245;52.832;13.816;2023-02-12T07:33:02;103444.72;;;7.03;83.53
17764;BME280;22245;52.832;13.816;2023-02-12T07:36:27;103444.66;;;7.04;83.58
17764;BME280;22245;52.832;13.816;2023-02-12T07:39:50;103445.53;;;7.05;83.55
17764;BME280;22245;52.832;13.816;2023-02-12T07:43:12;103448.13;;;7.06;83.60
17764;BME280;22245;52.832;13.816;2023-02-12T07:46:35;103448.13;;;7.06;83.81
17764;BME280;22245;52.832;13.816;2023-02-12T07:49:57;103449.88;;;7.07;84.19
17764;BME280;22245;52.832;13.816;2023-02-12T07:53:20;103458.66;;;7.09;83.94
17764;BME280;22245;52.832;13.816;2023-02-12T07:56:43;103455.97;;;7.11;84.51
17764;BME280;22245;52.832;13.816;2023-02-12T08:00:08;103466.50;;;7.13;84.49
17764;BME280;22245;52.832;13.816;2023-02-12T08:03:33;103462.03;;;7.15;84.26
17764;BME280;22245;52.832;13.816;2023-02-12T08:06:55;103463.00;;;7.12;84.54
17764;BME280;22245;52.832;13.816;2023-02-12T08:10:17;103469.97;;;7.15;84.83
17764;BME280;22245;52.832;13.816;2023-02-12T08:13:43;103467.25;;;7.18;84.97
17764;BME280;22245;52.832;13.816;2023-02-12T08:17:05;103476.06;;;7.20;84.69
17764;BME280;22245;52.832;13.816;2023-02-12T08:20:27;103470.69;;;7.23;84.55
17764;BME280;22245;52.832;13.816;2023-02-12T08:23:48;103476.75;;;7.27;nan
17764;BME280;22245;52.832;13.816;2023-02-12T08:27:10;103481.19;;;7.26;84.74
17764;BME280;22245;52.832;13.816;2023-02-12T08:30:34;103476.72;;;7.28;84.08
17764;BME280;22245;52.832;13.816;2023-02-12T08:33:56;103491.66;;;7.31;83.90
17764;BME280;22245;52.832;13.816;2023-02-12T08:37:18;103497.84;;;7.31;84.08
17764;BME280;22245;52.832;13.816;2023-02-12T08:40:40;103497.88;;;7.30;84.52
17764;BME280;22245;52.832;13.816;2023-02-12T08:44:03;103502.22;;;7.32;83.83
17764;BME280;22245;52.832;13.816;2023-02-12T08:47:27;103501.25;;;7.35;84.08
17764;BME280;22245;52.832;13.816;2023-02-12T08:50:50;103511.84;;;7.36;84.16
17764;BME280;22245;52.832;13.816;2023-02-12T08:54:14;103515.31;;;7.38;83.99
17764;BME280;22245;52.832;13.816;2023-02-12T08:57:36;103518.78;;;7.41;83.28
17764;BME280;22245;52.832;13.816;2023-02-12T09:00:57;103518.72;;;7.44;83.37
17764;BME280;22245;52.832;13.816;2023-02-12T09:04:23;103523.97;;;7.45;82.76
17764;BME280;22245;52.832;13.816;2023-02-12T09:07:44;103525.66;;;7.48;82.47
17764;BME280;22245;52.832;13.816;2023-02-12T09:11:07;103527.41;;;7.49;82.14
17764;BME280;22245;52.832;13.816;2023-02-12T09:14:29;103524.66;;;7.52;82.19
17764;BME280;22245;52.832;13.816;2023-02-12T09:17:50;103526.38;;;7.55;82.20
17764;BME280;22245;52.832;13.816;2023-02-12T09:21:14;103528.94;;;7.58;82.41
17764;BME280;22245;52.832;13.816;2023-02-12T09:24:36;103534.13;;;7.62;82.13
17764;BME280;22245;52.832;13.816;2023-02-12T09:27:57;103535.81;;;7.65;82.15
17764;BME280;22245;52.832;13.816;2023-02-12T09:31:20;103544.66;;;7.65;82.55
17764;BME280;22245;52.832;13.816;2023-02-12T09:34:45;103549.81;;;7.70;82.01
17764;BME280;22245;52.832;13.816;2023-02-12T09:38:09;103549.72;;;7.73;82.26
17764;BME280;22245;52.832;13.816;2023-02-12T09:41:44;103547.88;;;7.75;82.18
17764;BME280;22245;52.832;13.816;2023-02-12T09:45:12;103555.78;;;7.78;82.73
17764;BME280;22245;52.832;13.816;2023-02-12T09:48:47;103557.44;;;7.82;82.28
17764;BME280;22245;52.832;13.816;2023-02-12T09:52:16;103552.88;;;7.88;82.06
17764;BME280;22245;52.832;13.816;2023-02-12T09:55:39;103551.03;;;7.90;81.86
17764;BME280;22245;52.832;13.816;2023-02-12T09:59:04;103556.34;;;7.90;82.12
17764;BME280;22245;52.832;13.816;2023-02-12T10:02:26;103561.84;;;7.84;82.44
17764;BME280;22245;52.832;13.816;2023-02-12T10:05:50;103558.22;;;7.86;82.40
17764;BME280;22245;52.832;13.816;2023-02-12T10:09:27;103558.19;;;7.88;83.16
17764;BME280;22245;52.832;13.816;2023-02-12T10:12:56;103560.78;;;7.89;82.83
17764;BME280;22245;52.832;13.816;2023-02-12T10:16:34;103552.88;;;7.88;83.09
17764;BME280;22245;52.832;13.816;2023-02-12T10:24:26;103553.53;;;7.94;83.38
17764;BME280;22245;52.832;13.816;2023-02-12T10:27:54;103553.47;;;7.97;83.08
17764;BME280;22245;52.832;13.816;2023-02-12T10:31:23;103546.38;;;7.98;82.71
17764;BME280;22245;52.832;13.816;2023-02-12T10:34:49;103545.47;;;7.99;82.91
17764;BME280;22245;52.832;13.816;2023-02-12T10:38:15;103540.94;;;8.03;83.42
17764;BME280;22245;52.832;13.816;2023-02-12T10:41:42;103549.75;;;8.03;83.01
17764;BME280;22245;52.832;13.816;2023-02-12T10:45:11;103538.22;;;8.04;82.59
17764;BME280;22245;52.832;13.816;2023-02-12T10:48:37;103548.94;;;8.01;82.54
17764;BME280;22245;52.832;13.816;2023-02-12T10:52:06;103550.69;;;8.02;82.55
17764;BME280;22245;52.832;13.816;2023-02-12T10:55:31;103550.50;;;8.08;82.70
17764;BME280;22245;52.832;13.816;2023-02-12T10:58:55;103547.91;;;8.07;82.96
17764;BME280;22245;52.832;13.816;2023-02-12T11:02:22;103544.31;;;8.08;82.92
17764;BME280;22245;52.832;13.816;2023-02-12T11:05:44;103539.97;;;8.05;82.69
17764;BME280;22245;52.832;13.816;2023-02-12T11:09:26;103547.81;;;8.10;82.61
17764;BME280;22245;52.832;13.816;2023-02-12T11:12:49;103547.94;;;8.05;83.02
17764;BME280;22245;52.832;13.816;2023-02-12T11:16:11;103548.84;;;8.04;82.94
17764;BME280;22245;52.832;13.816;2023-02-12T11:19:34;103546.16;;;8.06;83.20
17764;BME280;22245;52.832;13.816;2023-02-12T11:22:58;103541.78;;;8.03;82.99
17764;BME280;22245;52.832;13.816;2023-02-12T11:26:24;103547.91;;;8.07;82.56
17764;BME280;22245;52.832;13.816;2023-02-12T11:29:46;103545.28;;;8.05;82.49
17764;BME280;22245;52.832;13.816;2023-02-12T11:33:27;103551.56;;;8.03;82.22
17764;BME280;22245;52.832;13.816;2023-02-12T11:36:52;103552.56;;;7.99;83.30
17764;BME280;22245;52.832;13.816;2023-02-12T11:40:18;103541.06;;;7.98;83.72
17764;BME280;22245;52.832;13.816;2023-02-12T11:43:40;103533.94;;;8.00;83.58
17764;BME280;22245;52.832;13.816;2023-02-12T11:47:03;103534.00;;;7.99;83.43
17764;BME280;22245;52.832;13.816;2023-02-12T11:50:30;103537.56;;;7.97;84.13
17764;BME280;22245;52.832;13.816;2023-02-12T11:53:54;103533.94;;;8.00;83.94
17764;BME280;22245;52.832;13.816;2023-02-12T11:57:38;103525.25;;;7.93;84.54
17764;BME280;22245;52.832;13.816;2023-02-12T12:01:09;103529.66;;;7.94;84.39
17764;BME280;22245;52.832;13.816;2023-02-12T12:04:33;103526.97;;;7.96;84.84
17764;BME280;22245;52.832;13.816;2023-02-12T12:07:59;103527.09;;;7.91;85.57
17764;BME280;22245;52.832;13.816;2023-02-12T12:11:28;103520.06;;;7.90;85.52
17764;BME280;22245;52.832;13.816;2023-02-12T12:14:58;103528.84;;;7.92;85.42
17764;BME280;22245;52.832;13.816;2023-02-12T12:18:44;103528.91;;;7.91;85.77
17764;BME280;22245;52.832;13.816;2023-02-12T12:22:43;103522.25;;;7.76;86.45
17764;BME280;22245;52.832;13.816;2023-02-12T12:26:11;103517.75;;;7.78;86.72
17764;BME280;22245;52.832;13.816;2023-02-12T12:29:45;103517.66;;;7.82;86.72
17764;BME280;22245;52.832;13.816;2023-02-12T12:33:15;103520.22;;;7.84;85.37
17764;BME280;22245;52.832;13.816;2023-02-12T12:40:44;103511.63;;;7.76;84.85
17764;BME280;22245;52.832;13.816;2023-02-12T12:44:23;103509.72;;;7.81;84.28
17764;BME280;22245;52.832;13.816;2023-02-12T12:48:02;103496.41;;;7.82;84.09
17764;BME280;22245;52.832;13.816;2023-02-12T12:51:34;103507.78;;;7.86;83.32
17764;BME280;22245;52.832;13.816;2023-02-12T12:55:30;103501.53;;;7.89;82.65
17764;BME280;22245;52.832;13.816;2023-02-12T12:59:15;103490.78;;;7.93;81.81
17764;BME280;22245;52.832;13.816;2023-02-12T13:03:12;103496.31;;;7.86;81.05
17764;BME280;22245;52.832;13.816;2023-02-12T13:06:50;103488.97;;;7.95;81.51
17764;BME280;22245;52.832;13.816;2023-02-12T13:10:24;103492.19;;;8.05;79.77
17764;BME280;22245;52.832;13.816;2023-02-12T13:13:56;103489.50;;;8.07;79.85
17764;BME280;22245;52.832;13.816;2023-02-12T13:17:25;103498.91;;;8.17;80.13
17764;BME280;22245;52.832;13.816;2023-02-12T13:20:57;103496.16;;;8.20;78.93
17764;BME280;22245;52.832;13.816;2023-02-12T13:24:26;103486.31;;;8.24;78.84
17764;BME280;22245;52.832;13.816;2023-02-12T13:27:50;103482.78;;;8.23;78.86
17764;BME280;22245;52.832;13.816;2023-02-12T13:31:17;103482.56;;;8.31;78.12
17764;BME280;22245;52.832;13.816;2023-02-12T13:34:53;103477.97;;;8.36;77.58
17764;BME280;22245;52.832;13.816;2023-02-12T13:38:20;103468.13;;;8.40;77.15
17764;BME280;22245;52.832;13.816;2023-02-12T13:41:46;103475.19;;;8.41;77.21
17764;BME280;22245;52.832;13.816;2023-02-12T13:45:23;103467.09;;;8.44;75.78
17764;BME280;22245;52.832;13.816;2023-02-12T13:48:54;103471.69;;;8.39;75.24
17764;BME280;22245;52.832;13.816;2023-02-12T13:52:25;103468.88;;;8.44;75.46
17764;BME280;22245;52.832;13.816;2023-02-12T13:56:02;103456.38;;;8.47;75.53
17764;BME280;22245;52.832;13.816;2023-02-12T13:59:43;103460.75;;;8.50;75.37
17764;BME280;22245;52.832;13.816;2023-02-12T14:03:07;103459.69;;;8.56;75.25
17764;BME280;22245;52.832;13.816;2023-02-12T14:06:37;103456.00;;;8.60;75.56
17764;BME280;22245;52.832;13.816;2023-02-12T14:10:02;103458.63;;;8.61;75.27
17764;BME280;22245;52.832;13.816;2023-02-12T14:13:25;103452.31;;;8.64;75.25
17764;BME280;22245;52.832;13.816;2023-02-12T14:16:54;103451.34;;;8.66;75.09
17764;BME280;22245;52.832;13.816;2023-02-12T14:20:25;103458.44;;;8.66;75.51
17764;BME280;22245;52.832;13.816;2023-02-12T14:23:50;103444.97;;;8.72;75.03
17764;BME280;22245;52.832;13.816;2023-02-12T14:27:35;103452.84;;;8.75;75.44
17764;BME280;22245;52.832;13.816;2023-02-12T14:31:30;103452.84;;;8.75;75.50
17764;BME280;22245;52.832;13.816;2023-02-12T14:34:52;103452.63;;;8.81;75.32
17764;BME280;22245;52.832;13.816;2023-02-12T14:42:53;103453.22;;;8.90;75.30
17764;BME280;22245;52.832;13.816;2023-02-12T14:46:46;103451.38;;;8.92;75.39
17764;BME280;22245;52.832;13.816;2023-02-12T14:50:15;103450.34;;;8.96;74.99
17764;BME280;22245;52.832;13.816;2023-02-12T14:53:39;103456.47;;;8.98;75.18
17764;BME280;22245;52.832;13.816;2023-02-12T14:57:07;103451.06;;;9.01;75.29
17764;BME280;22245;52.832;13.816;2023-02-12T15:00:34;103458.91;;;9.04;75.14
17764;BME280;22245;52.832;13.816;2023-02-12T15:03:58;103461.47;;;9.07;74.70
17764;BME280;22245;52.832;13.816;2023-02-12T15:07:29;103452.56;;;9.08;74.44
17764;BME280;22245;52.832;13.816;2023-02-12T15:10:54;103460.50;;;9.10;74.52
17764;BME280;22245;52.832;13.816;2023-02-12T15:14:21;103464.03;;;9.10;74.46
17764;BME280;22245;52.832;13.816;2023-02-12T15:17:53;103472.88;;;9.11;74.73
17764;BME280;22245;52.832;13.816;2023-02-12T15:21:19;103471.91;;;9.14;74.51
17764;BME280;22245;52.832;13.816;2023-02-12T15:24:41;103468.38;;;9.13;74.60
17764;BME280;22245;52.832;13.816;2023-02-12T15:28:18;103473.66;;;9.15;74.60
17764;BME280;22245;52.832;13.816;2023-02-12T15:31:41;103473.56;;;9.16;74.47
17764;BME280;22245;52.832;13.816;2023-02-12T15:35:05;103473.56;;;9.16;74.39
17764;BME280;22245;52.832;13.816;2023-02-12T15:38:30;103476.22;;;9.16;74.30
17764;BME280;22245;52.832;13.816;2023-02-12T15:41:52;103470.91;;;9.16;74.35
17764;BME280;22245;52.832;13.816;2023-02-12T15:45:20;103467.41;;;9.16;74.48
17764;BME280;22245;52.832;13.816;2023-02-12T15:48:42;103467.34;;;9.17;74.66
17764;BME280;22245;52.832;13.816;2023-02-12T15:52:07;103478.84;;;9.18;74.38
17764;BME280;22245;52.832;13.816;2023-02-12T15:55:35;103475.31;;;9.17;74.64
17764;BME280;22245;52.832;13.816;2023-02-12T15:59:01;103476.22;;;9.16;74.72
17764;BME280;22245;52.832;13.816;2023-02-12T16:02:25;103477.16;;;9.15;74.69
17764;BME280;22245;52.832;13.816;2023-02-12T16:05:48;103482.53;;;9.14;74.89
17764;BME280;22245;52.832;13.816;2023-02-12T16:09:16;103478.19;;;9.11;75.24
17764;BME280;22245;52.832;13.816;2023-02-12T16:12:40;103484.41;;;9.11;75.32
17764;BME280;22245;52.832;13.816;2023-02-12T16:16:04;103488.81;;;9.11;75.60
17764;BME280;22245;52.832;13.816;2023-02-12T16:19:28;103495.09;;;9.08;75.41
17764;BME280;22245;52.832;13.816;2023-02-12T16:22:53;103501.34;;;9.07;75.45
17764;BME280;22245;52.832;13.816;2023-02-12T16:26:19;103504.00;;;9.07;75.76
17764;BME280;22245;52.832;13.816;2023-02-12T16:29:44;103511.16;;;9.05;75.70
17764;BME280;22245;52.832;13.816;2023-02-12T16:33:31;103505.00;;;9.05;75.71
17764;BME280;22245;52.832;13.816;2023-02-12T16:36:53;103503.25;;;9.04;75.74
17764;BME280;22245;52.832;13.816;2023-02-12T16:40:24;103511.28;;;9.02;75.90
17764;BME280;22245;52.832;13.816;2023-02-12T16:43:48;103514.84;;;9.01;75.97
17764;BME280;22245;52.832;13.816;2023-02-12T16:47:18;103508.72;;;8.99;76.19
17764;BME280;22245;52.832;13.816;2023-02-12T16:50:47;103513.19;;;8.98;76.11
17764;BME280;22245;52.832;13.816;2023-02-12T16:54:25;103513.22;;;8.97;76.23
17764;BME280;22245;52.832;13.816;2023-02-12T16:57:47;103517.63;;;8.98;76.43
17764;BME280;22245;52.832;13.816;2023-02-12T17:01:14;103520.34;;;8.96;76.44
17764;BME280;22245;52.832;13.816;2023-02-12T17:04:36;103511.47;;;8.96;76.33
17764;BME280;22245;52.832;13.816;2023-02-12T17:07:58;103520.38;;;8.95;76.46
17764;BME280;22245;52.832;13.816;2023-02-12T17:11:21;103512.50;;;8.92;76.62
17764;BME280;22245;52.832;13.816;2023-02-12T17:14:43;103513.44;;;8.91;76.85
17764;BME280;22245;52.832;13.816;2023-02-12T17:18:06;103513.53;;;8.88;77.02
17764;BME280;22245;52.832;13.816;2023-02-12T17:21:31;103505.59;;;8.86;77.08
17764;BME280;22245;52.832;13.816;2023-02-12T17:24:57;103518.97;;;8.85;77.24
17764;BME280;22245;52.832;13.816;2023-02-12T17:28:19;103525.13;;;8.85;77.36
17764;BME280;22245;52.832;13.816;2023-02-12T17:31:41;103527.84;;;8.83;77.36
17764;BME280;22245;52.832;13.816;2023-02-12T17:35:05;103530.56;;;8.82;77.71
17764;BME280;22245;52.832;13.816;2023-02-12T17:38:27;103527.03;;;8.81;77.73
17764;BME280;22245;52.832;13.816;2023-02-12T17:41:49;103529.72;;;8.80;77.87
17764;BME280;22245;52.832;13.816;2023-02-12T17:45:10;103535.97;;;8.79;78.08
17764;BME280;22245;52.832;13.816;2023-02-12T17:48:32;103543.09;;;8.78;78.53
17764;BME280;22245;52.832;13.816;2023-02-12T17:51:55;103539.63;;;8.76;78.43
17764;BME280;22245;52.832;13.816;2023-02-12T17:55:17;103541.34;;;8.77;78.74
17764;BME280;22245;52.832;13.816;2023-02-12T17:58:39;103559.03;;;8.78;79.03
17764;BME280;22245;52.832;13.816;2023-02-12T18:02:01;103559.06;;;8.77;78.83
17764;BME280;22245;52.832;13.816;2023-02-12T18:05:23;103563.66;;;8.72;79.24
17764;BME280;22245;52.832;13.816;2023-02-12T18:08:46;103554.81;;;8.71;79.52
17764;BME280;22245;52.832;13.816;2023-02-12T18:12:08;103558.38;;;8.70;79.74